createdAt,value
2018-12-19T00:01:52.985Z,17.90
2018-12-19T00:04:22.833Z,17.02
2018-12-19T00:06:53.151Z,16.65
2018-12-19T00:09:20.405Z,16.27
2018-12-19T00:11:50.105Z,16.62
2018-12-19T00:14:17.429Z,14.50
2018-12-19T00:16:48.777Z,17.82
2018-12-19T00:19:19.760Z,17.75
2018-12-19T00:21:49.051Z,16.90
2018-12-19T00:24:16.906Z,17.00
2018-12-19T00:26:48.519Z,16.35
2018-12-19T00:29:18.055Z,16.85
2018-12-19T00:32:02.298Z,17.02
2018-12-19T00:34:34.228Z,15.18
2018-12-19T00:37:07.950Z,17.00
2018-12-19T00:39:35.477Z,17.62
2018-12-19T00:42:02.737Z,16.25
2018-12-19T00:44:29.956Z,16.40
2018-12-19T00:47:04.316Z,17.45
2018-12-19T00:49:31.576Z,16.12
2018-12-19T00:51:58.828Z,16.20
2018-12-19T00:54:26.053Z,15.88
2018-12-19T00:56:53.936Z,17.85
2018-12-19T00:59:21.174Z,19.05
2018-12-19T01:01:48.435Z,16.80
2018-12-19T01:04:15.665Z,16.40
2018-12-19T01:06:43.613Z,16.93
2018-12-19T01:09:15.886Z,16.52
2018-12-19T01:11:40.384Z,18.57
2018-12-19T01:14:09.710Z,16.10
2018-12-19T01:16:38.046Z,18.17
2018-12-19T01:19:06.325Z,17.30
2018-12-19T01:21:33.984Z,17.02
2018-12-19T01:24:01.249Z,17.87
2018-12-19T01:26:28.597Z,16.93
2018-12-19T01:28:55.848Z,16.32
2018-12-19T01:31:24.070Z,17.82
2018-12-19T01:33:52.356Z,17.50
2018-12-19T01:36:20.556Z,16.35
2018-12-19T01:38:50.049Z,15.80
2018-12-19T01:41:17.324Z,16.77
2018-12-19T01:43:44.564Z,17.32
2018-12-19T01:46:11.937Z,16.20
2018-12-19T01:48:39.156Z,16.30
2018-12-19T01:51:07.606Z,17.15
2018-12-19T01:53:34.970Z,16.75
2018-12-19T01:56:02.344Z,16.87
2018-12-19T01:58:29.624Z,16.67
2018-12-19T02:00:56.945Z,18.15
2018-12-19T02:03:27.692Z,16.50
2018-12-19T02:05:56.981Z,16.85
2018-12-19T02:08:24.316Z,17.23
2018-12-19T02:10:51.564Z,15.43
2018-12-19T02:13:18.787Z,18.55
2018-12-19T02:15:46.092Z,16.52
2018-12-19T02:18:16.197Z,16.95
2018-12-19T02:20:43.523Z,18.00
2018-12-19T02:23:10.780Z,15.93
2018-12-19T02:25:38.219Z,15.68
2018-12-19T02:28:06.565Z,16.73
2018-12-19T02:30:50.953Z,14.68
2018-12-19T02:33:18.308Z,14.78
2018-12-19T02:35:45.640Z,16.23
2018-12-19T02:38:14.120Z,15.80
2018-12-19T02:40:41.452Z,16.07
2018-12-19T02:43:08.762Z,16.75
2018-12-19T02:45:36.041Z,14.65
2018-12-19T02:48:03.283Z,15.50
2018-12-19T02:50:30.508Z,15.48
2018-12-19T02:52:57.822Z,14.10
2018-12-19T02:55:25.045Z,14.47
2018-12-19T02:57:53.388Z,13.68
2018-12-19T03:00:20.633Z,14.35
2018-12-19T03:02:47.894Z,13.98
2018-12-19T03:05:15.261Z,14.53
2018-12-19T03:07:42.536Z,13.90
2018-12-19T03:10:09.928Z,14.03
2018-12-19T03:12:37.264Z,14.80
2018-12-19T03:15:04.797Z,14.45
2018-12-19T03:17:35.279Z,14.68
2018-12-19T03:20:02.660Z,16.93
2018-12-19T03:22:30.062Z,14.55
2018-12-19T03:24:57.314Z,15.40
2018-12-19T03:27:24.601Z,14.65
2018-12-19T03:29:51.834Z,15.28
2018-12-19T03:32:19.234Z,15.23
2018-12-19T03:34:46.448Z,15.50
2018-12-19T03:37:13.690Z,15.03
2018-12-19T03:39:40.908Z,15.83
2018-12-19T03:42:08.132Z,14.50
2018-12-19T03:44:35.364Z,15.38
2018-12-19T03:47:02.640Z,14.93
2018-12-19T03:49:30.201Z,16.05
2018-12-19T03:51:57.469Z,16.12
2018-12-19T03:54:25.249Z,14.40
2018-12-19T03:56:52.893Z,19.60
2018-12-19T03:59:20.128Z,17.60
2018-12-19T04:01:47.372Z,14.93
2018-12-19T04:04:14.598Z,13.85
2018-12-19T04:06:42.876Z,15.85
2018-12-19T04:09:10.105Z,17.85
2018-12-19T04:11:37.346Z,14.60
2018-12-19T04:14:05.735Z,14.83
2018-12-19T04:16:32.971Z,15.50
2018-12-19T04:19:00.269Z,15.18
2018-12-19T04:21:30.676Z,16.60
2018-12-19T04:23:57.913Z,14.75
2018-12-19T04:26:26.141Z,15.40
2018-12-19T04:28:53.467Z,16.50
2018-12-19T04:31:21.829Z,16.07
2018-12-19T04:33:49.058Z,15.68
2018-12-19T04:36:16.447Z,16.90
2018-12-19T04:38:44.016Z,16.70
2018-12-19T04:41:11.492Z,18.02
2018-12-19T04:43:38.864Z,16.65
2018-12-19T04:46:06.080Z,16.82
2018-12-19T04:48:33.300Z,14.40
2018-12-19T04:51:00.580Z,15.40
2018-12-19T04:53:27.901Z,15.95
2018-12-19T04:55:55.140Z,17.90
2018-12-19T04:58:22.361Z,15.55
2018-12-19T05:00:49.597Z,18.45
2018-12-19T05:03:16.837Z,16.85
2018-12-19T05:05:44.062Z,15.68
2018-12-19T05:08:11.280Z,18.65
2018-12-19T05:10:40.507Z,15.83
2018-12-19T05:13:07.711Z,17.20
2018-12-19T05:15:35.929Z,16.40
2018-12-19T05:18:03.210Z,17.42
2018-12-19T05:20:30.446Z,17.42
2018-12-19T05:22:57.692Z,17.67
2018-12-19T05:25:24.941Z,18.07
2018-12-19T05:27:52.204Z,17.52
2018-12-19T05:30:20.479Z,18.02
2018-12-19T05:32:47.821Z,18.27
2018-12-19T05:35:16.049Z,16.93
2018-12-19T05:37:43.304Z,17.32
2018-12-19T05:40:10.548Z,17.05
2018-12-19T05:42:37.776Z,18.35
2018-12-19T05:45:06.848Z,17.60
2018-12-19T05:47:34.346Z,18.10
2018-12-19T05:50:14.526Z,16.65
2018-12-19T05:52:42.068Z,19.87
2018-12-19T05:55:09.336Z,35.65
2018-12-19T05:57:36.739Z,24.75
2018-12-19T06:00:07.015Z,17.50
2018-12-19T06:02:35.372Z,18.00
2018-12-19T06:05:18.372Z,19.57
2018-12-19T06:07:45.669Z,17.95
2018-12-19T06:10:14.004Z,15.78
2018-12-19T06:12:41.477Z,18.82
2018-12-19T06:15:08.905Z,17.45
2018-12-19T06:17:36.184Z,18.85
2018-12-19T06:20:04.942Z,15.95
2018-12-19T06:22:33.387Z,18.52
2018-12-19T06:25:05.228Z,17.17
2018-12-19T06:27:33.685Z,18.45
2018-12-19T06:30:00.950Z,17.75
2018-12-19T06:32:28.260Z,18.73
2018-12-19T06:34:55.544Z,18.07
2018-12-19T06:37:23.862Z,19.60
2018-12-19T06:39:51.206Z,18.20
2018-12-19T06:42:18.498Z,19.15
2018-12-19T06:44:47.884Z,20.75
2018-12-19T06:47:16.284Z,18.55
2018-12-19T06:49:44.589Z,18.50
2018-12-19T06:52:12.867Z,18.05
2018-12-19T06:54:40.232Z,19.17
2018-12-19T06:57:07.515Z,19.52
2018-12-19T06:59:34.876Z,18.62
2018-12-19T07:02:02.392Z,21.83
2018-12-19T07:04:29.644Z,21.25
2018-12-19T07:06:57.124Z,17.98
2018-12-19T07:09:24.479Z,20.43
2018-12-19T07:11:51.779Z,21.00
2018-12-19T07:14:21.148Z,19.85
2018-12-19T07:16:49.476Z,18.87
2018-12-19T07:19:18.756Z,18.52
2018-12-19T07:21:46.049Z,18.65
2018-12-19T07:24:16.116Z,18.57
2018-12-19T07:29:16.323Z,19.30
2018-12-19T07:31:44.380Z,17.00
2018-12-19T07:34:12.876Z,20.35
2018-12-19T07:36:40.129Z,18.02
2018-12-19T07:39:07.670Z,20.17
2018-12-19T07:41:34.968Z,21.80
2018-12-19T07:44:02.233Z,18.92
2018-12-19T07:46:30.536Z,17.17
2018-12-19T07:48:57.817Z,20.80
2018-12-19T07:51:25.052Z,19.00
2018-12-19T07:53:53.492Z,20.80
2018-12-19T07:56:20.746Z,18.27
2018-12-19T07:58:48.012Z,18.77
2018-12-19T08:01:15.297Z,20.08
2018-12-19T08:03:42.556Z,18.98
2018-12-19T08:06:09.812Z,19.70
2018-12-19T08:08:37.060Z,18.23
2018-12-19T08:11:04.309Z,16.95
2018-12-19T08:13:31.553Z,19.07
2018-12-19T08:15:58.800Z,18.15
2018-12-19T08:18:26.187Z,18.17
2018-12-19T08:20:53.550Z,16.50
2018-12-19T08:23:21.872Z,18.48
2018-12-19T08:25:50.290Z,19.90
2018-12-19T08:28:17.567Z,17.23
2018-12-19T08:30:44.845Z,20.55
2018-12-19T08:33:12.108Z,21.82
2018-12-19T08:35:39.349Z,18.52
2018-12-19T08:38:07.648Z,18.32
2018-12-19T08:40:34.892Z,18.10
2018-12-19T08:43:02.278Z,18.98
2018-12-19T08:45:30.140Z,18.25
2018-12-19T08:47:57.492Z,19.32
2018-12-19T08:50:26.764Z,17.20
2018-12-19T08:52:54.042Z,18.32
2018-12-19T08:55:21.372Z,18.15
2018-12-19T08:57:48.757Z,18.05
2018-12-19T09:00:16.017Z,19.90
2018-12-19T09:02:43.306Z,18.15
2018-12-19T09:05:10.549Z,19.52
2018-12-19T09:07:43.602Z,19.37
2018-12-19T09:10:10.892Z,17.48
2018-12-19T09:12:38.117Z,19.80
2018-12-19T09:15:06.382Z,16.73
2018-12-19T09:17:33.814Z,17.15
2018-12-19T09:20:03.709Z,17.85
2018-12-19T09:22:30.990Z,18.77
2018-12-19T09:24:58.473Z,16.05
2018-12-19T09:27:25.713Z,19.95
2018-12-19T09:29:53.029Z,18.35
2018-12-19T09:32:21.378Z,21.15
2018-12-19T09:34:48.634Z,19.37
2018-12-19T09:37:16.011Z,18.30
2018-12-19T09:39:43.272Z,20.50
2018-12-19T09:42:10.518Z,19.20
2018-12-19T09:44:37.804Z,17.85
2018-12-19T09:47:05.061Z,19.10
2018-12-19T09:49:32.350Z,18.60
2018-12-19T09:51:59.624Z,19.67
2018-12-19T09:54:26.860Z,19.55
2018-12-19T09:56:54.096Z,20.32
2018-12-19T09:59:21.348Z,18.42
2018-12-19T10:01:48.688Z,17.37
2018-12-19T10:04:15.926Z,20.25
2018-12-19T10:09:36.913Z,19.98
2018-12-19T10:12:04.208Z,18.62
2018-12-19T10:14:31.478Z,19.90
2018-12-19T10:16:58.825Z,17.92
2018-12-19T10:19:26.064Z,16.50
2018-12-19T10:21:53.316Z,19.48
2018-12-19T10:24:23.254Z,18.82
2018-12-19T10:26:50.550Z,20.65
2018-12-19T10:29:18.846Z,19.27
2018-12-19T10:31:46.263Z,17.55
2018-12-19T10:34:16.852Z,19.73
2018-12-19T10:36:44.096Z,18.27
2018-12-19T10:39:15.808Z,16.90
2018-12-19T10:41:43.067Z,17.70
2018-12-19T10:44:10.644Z,18.32
2018-12-19T10:46:39.245Z,18.98
2018-12-19T10:49:07.620Z,18.42
2018-12-19T10:51:34.911Z,18.40
2018-12-19T10:54:02.209Z,16.90
2018-12-19T10:56:29.511Z,20.32
2018-12-19T10:58:56.781Z,17.90
2018-12-19T11:01:24.057Z,16.87
2018-12-19T11:03:51.318Z,18.60
2018-12-19T11:06:18.584Z,19.02
2018-12-19T11:08:45.900Z,17.80
2018-12-19T11:11:13.156Z,17.73
2018-12-19T11:13:40.413Z,18.67
2018-12-19T11:16:08.706Z,18.07
2018-12-19T11:18:35.945Z,15.95
2018-12-19T11:21:03.425Z,17.07
2018-12-19T11:23:30.816Z,18.35
2018-12-19T11:25:58.064Z,17.87
2018-12-19T11:28:25.304Z,17.90
2018-12-19T11:30:53.569Z,16.60
2018-12-19T11:33:20.921Z,16.25
2018-12-19T11:35:48.974Z,17.48
2018-12-19T11:38:16.257Z,15.90
2018-12-19T11:40:43.529Z,15.72
2018-12-19T11:43:10.766Z,17.30
2018-12-19T11:45:38.060Z,15.93
2018-12-19T11:48:05.300Z,16.82
2018-12-19T11:50:32.560Z,17.32
2018-12-19T11:52:59.832Z,17.40
2018-12-19T11:55:27.593Z,17.12
2018-12-19T11:57:54.876Z,19.12
2018-12-19T12:00:22.111Z,18.50
2018-12-19T12:02:49.350Z,16.45
2018-12-19T12:05:16.808Z,16.37
2018-12-19T12:07:46.048Z,17.70
2018-12-19T12:10:13.332Z,19.30
2018-12-19T12:12:40.676Z,18.47
2018-12-19T12:15:08.997Z,16.85
2018-12-19T12:17:36.370Z,22.67
2018-12-19T12:20:05.513Z,17.15
2018-12-19T12:22:32.761Z,15.68
2018-12-19T12:25:00.022Z,15.85
2018-12-19T12:27:28.396Z,16.48
2018-12-19T12:29:57.740Z,16.17
2018-12-19T12:32:26.224Z,17.32
2018-12-19T12:34:53.629Z,16.55
2018-12-19T12:37:20.886Z,17.15
2018-12-19T12:39:48.248Z,20.50
2018-12-19T12:42:16.648Z,16.73
2018-12-19T12:44:44.367Z,16.82
2018-12-19T12:47:12.185Z,16.93
2018-12-19T12:49:39.641Z,17.30
2018-12-19T12:52:06.934Z,16.80
2018-12-19T12:54:34.532Z,19.05
2018-12-19T12:57:03.054Z,18.98
2018-12-19T12:59:30.566Z,16.55
2018-12-19T13:01:57.821Z,18.02
2018-12-19T13:04:25.111Z,18.23
2018-12-19T13:06:52.432Z,16.97
2018-12-19T13:09:19.709Z,18.67
2018-12-19T13:11:47.004Z,17.23
2018-12-19T13:14:16.736Z,17.65
2018-12-19T13:16:43.983Z,17.20
2018-12-19T13:19:11.246Z,19.60
2018-12-19T13:21:42.051Z,17.50
2018-12-19T13:24:11.424Z,15.40
2018-12-19T13:26:38.857Z,19.87
2018-12-19T13:29:06.111Z,19.20
2018-12-19T13:31:37.436Z,17.70
2018-12-19T13:34:05.756Z,18.47
2018-12-19T13:36:33.054Z,15.83
2018-12-19T13:39:01.325Z,17.10
2018-12-19T13:41:30.729Z,18.57
2018-12-19T13:43:57.952Z,19.17
2018-12-19T13:46:25.573Z,16.47
2018-12-19T13:48:52.838Z,15.30
2018-12-19T13:51:20.176Z,17.77
2018-12-19T13:53:47.531Z,17.93
2018-12-19T13:56:14.792Z,16.10
2018-12-19T13:58:42.584Z,18.40
2018-12-19T14:01:09.906Z,19.50
2018-12-19T14:03:37.384Z,17.73
2018-12-19T14:06:04.790Z,17.50
2018-12-19T14:08:32.177Z,20.17
2018-12-19T14:11:00.551Z,18.70
2018-12-19T14:13:27.797Z,19.87
2018-12-19T14:15:55.041Z,16.57
2018-12-19T14:18:22.325Z,18.63
2018-12-19T14:20:49.553Z,19.13
2018-12-19T14:23:16.780Z,16.50
2018-12-19T14:25:43.993Z,18.87
2018-12-19T14:28:11.232Z,18.13
2018-12-19T14:30:39.008Z,17.17
2018-12-19T14:33:07.277Z,20.30
2018-12-19T14:35:34.521Z,18.80
2018-12-19T14:38:02.816Z,18.30
2018-12-19T14:40:35.192Z,17.77
2018-12-19T14:43:04.448Z,16.93
2018-12-19T14:45:31.921Z,17.70
2018-12-19T14:47:59.284Z,16.40
2018-12-19T14:50:27.543Z,18.67
2018-12-19T14:52:54.797Z,19.53
2018-12-19T14:55:26.981Z,16.93
2018-12-19T14:57:54.366Z,18.70
2018-12-19T15:00:21.760Z,18.60
2018-12-19T15:02:49.140Z,18.73
2018-12-19T15:05:16.385Z,20.03
2018-12-19T15:07:44.672Z,19.10
2018-12-19T15:10:11.912Z,18.10
2018-12-19T15:12:39.283Z,20.57
2018-12-19T15:15:08.378Z,23.22
2018-12-19T15:17:36.700Z,21.70
2018-12-19T15:20:04.785Z,20.40
2018-12-19T15:22:32.087Z,21.40
2018-12-19T15:24:59.469Z,19.90
2018-12-19T15:27:26.723Z,20.00
2018-12-19T15:29:53.973Z,19.57
2018-12-19T15:32:22.308Z,22.47
2018-12-19T15:34:49.546Z,23.70
2018-12-19T15:37:17.845Z,23.30
2018-12-19T15:39:45.097Z,24.53
2018-12-19T15:42:12.341Z,24.27
2018-12-19T15:44:39.582Z,25.87
2018-12-19T15:47:06.824Z,25.07
2018-12-19T15:49:34.069Z,24.97
2018-12-19T15:52:01.332Z,23.67
2018-12-19T15:54:29.628Z,25.23
2018-12-19T15:56:56.871Z,24.20
2018-12-19T15:59:24.133Z,24.30
2018-12-19T16:01:51.426Z,23.70
2018-12-19T16:04:18.700Z,24.77
2018-12-19T16:07:02.856Z,23.60
2018-12-19T16:09:30.059Z,25.33
2018-12-19T16:11:57.299Z,26.47
2018-12-19T16:14:24.505Z,28.53
2018-12-19T16:16:51.740Z,27.32
2018-12-19T16:19:18.965Z,33.93
2018-12-19T16:21:46.188Z,28.47
2018-12-19T16:24:13.388Z,29.20
2018-12-19T16:26:40.600Z,29.50
2018-12-19T16:29:08.826Z,26.77
2018-12-19T16:31:36.064Z,24.90
2018-12-19T16:34:03.279Z,24.17
2018-12-19T16:36:30.508Z,24.93
2018-12-19T16:38:57.741Z,25.37
2018-12-19T16:41:24.960Z,25.17
2018-12-19T16:43:52.180Z,27.50
2018-12-19T16:46:19.392Z,24.30
2018-12-19T16:48:46.604Z,24.47
2018-12-19T16:51:13.852Z,24.40
2018-12-19T16:53:41.096Z,25.20
2018-12-19T16:56:08.302Z,22.87
2018-12-19T16:58:35.566Z,23.20
2018-12-19T17:01:12.528Z,28.67
2018-12-19T17:03:52.332Z,25.00
2018-12-19T17:06:32.021Z,25.93
2018-12-19T17:09:16.204Z,25.83
2018-12-19T17:11:58.893Z,25.13
2018-12-19T17:14:45.241Z,25.00
2018-12-19T17:17:30.231Z,23.20
2018-12-19T17:20:10.230Z,24.23
2018-12-19T17:22:47.868Z,22.90
2018-12-19T17:25:15.128Z,23.33
2018-12-19T17:27:42.350Z,22.77
2018-12-19T17:30:09.562Z,23.40
2018-12-19T17:32:37.061Z,23.10
2018-12-19T17:35:04.740Z,22.80
2018-12-19T17:37:31.980Z,23.60
2018-12-19T17:39:59.325Z,23.27
2018-12-19T17:42:26.544Z,26.93
2018-12-19T17:44:53.764Z,25.43
2018-12-19T17:47:21.008Z,28.38
2018-12-19T17:49:49.836Z,24.27
2018-12-19T17:52:34.028Z,24.03
2018-12-19T17:55:01.280Z,24.43
2018-12-19T17:57:28.604Z,24.83
2018-12-19T17:59:55.945Z,25.90
2018-12-19T18:02:23.289Z,26.00
2018-12-19T18:04:50.496Z,24.03
2018-12-19T18:07:18.840Z,25.80
2018-12-19T18:09:46.154Z,34.78
2018-12-19T18:12:13.349Z,29.47
2018-12-19T18:14:40.686Z,28.60
2018-12-19T18:17:07.935Z,27.17
2018-12-19T18:19:35.150Z,26.57
2018-12-19T18:22:02.353Z,25.97
2018-12-19T18:24:29.569Z,26.90
2018-12-19T18:26:56.776Z,25.37
2018-12-19T18:29:24.117Z,27.50
2018-12-19T18:31:51.465Z,24.20
2018-12-19T18:34:18.689Z,27.20
2018-12-19T18:36:46.074Z,26.87
2018-12-19T18:39:13.277Z,26.90
2018-12-19T18:41:40.500Z,26.60
2018-12-19T18:44:07.877Z,27.03
2018-12-19T18:46:35.084Z,27.23
2018-12-19T18:49:02.307Z,27.17
2018-12-19T18:51:29.700Z,26.70
2018-12-19T18:53:56.936Z,24.90
2018-12-19T18:56:24.279Z,25.13
2018-12-19T19:00:20.617Z,26.67
2018-12-19T19:02:48.010Z,27.23
2018-12-19T19:05:16.291Z,27.20
2018-12-19T19:07:43.652Z,27.20
2018-12-19T19:10:10.949Z,24.03
2018-12-19T19:12:38.268Z,24.87
2018-12-19T19:15:06.156Z,24.77
2018-12-19T19:17:33.718Z,24.27
2018-12-19T19:20:01.048Z,22.30
2018-12-19T19:22:28.369Z,24.10
2018-12-19T19:24:56.136Z,22.73
2018-12-19T19:27:23.442Z,22.80
2018-12-19T19:29:50.644Z,22.67
2018-12-19T19:32:19.081Z,24.77
2018-12-19T19:34:46.276Z,23.23
2018-12-19T19:37:13.702Z,21.80
2018-12-19T19:39:40.952Z,22.67
2018-12-19T19:42:08.408Z,21.87
2018-12-19T19:44:35.605Z,22.03
2018-12-19T19:47:04.264Z,24.70
2018-12-19T19:49:31.614Z,21.17
2018-12-19T19:51:58.944Z,24.77
2018-12-19T19:54:26.188Z,21.80
2018-12-19T19:56:53.510Z,25.57
2018-12-19T19:59:21.753Z,24.03
2018-12-19T20:01:49.243Z,22.80
2018-12-19T20:04:16.448Z,20.77
2018-12-19T20:06:43.725Z,21.27
2018-12-19T20:09:10.994Z,21.80
2018-12-19T20:11:38.345Z,19.57
2018-12-19T20:14:05.732Z,21.90
2018-12-19T20:16:37.537Z,19.60
2018-12-19T20:19:04.756Z,21.77
2018-12-19T20:21:32.081Z,22.27
2018-12-19T20:23:59.301Z,21.80
2018-12-19T20:26:26.600Z,20.30
2018-12-19T20:28:53.797Z,19.07
2018-12-19T20:31:21.035Z,18.67
2018-12-19T20:33:48.745Z,21.17
2018-12-19T20:36:16.039Z,19.13
2018-12-19T20:38:43.513Z,19.63
2018-12-19T20:41:10.748Z,19.93
2018-12-19T20:43:40.108Z,20.53
2018-12-19T20:46:07.593Z,18.60
2018-12-19T20:48:35.071Z,20.57
2018-12-19T20:51:02.300Z,19.07
2018-12-19T20:53:29.913Z,18.03
2018-12-19T20:56:03.593Z,18.53
2018-12-19T20:58:26.366Z,19.17
2018-12-19T21:00:53.719Z,21.90
2018-12-19T21:03:21.149Z,20.30
2018-12-19T21:12:45.532Z,18.10
2018-12-19T21:15:12.949Z,20.50
2018-12-19T21:17:46.442Z,18.27
2018-12-19T21:20:13.801Z,20.20
2018-12-19T21:22:41.129Z,19.30
2018-12-19T21:25:09.800Z,19.87
2018-12-19T21:27:37.305Z,20.63
2018-12-19T21:30:06.225Z,19.73
2018-12-19T21:32:33.920Z,20.20
2018-12-19T21:35:01.152Z,19.83
2018-12-19T21:37:28.471Z,20.83
2018-12-19T21:39:56.813Z,20.80
2018-12-19T21:42:24.922Z,22.40
2018-12-19T21:44:52.391Z,20.17
2018-12-19T21:47:20.256Z,20.97
2018-12-19T21:49:47.673Z,19.37
2018-12-19T21:52:14.982Z,21.40
2018-12-19T21:54:42.321Z,20.60
2018-12-19T21:57:09.589Z,20.53
2018-12-19T21:59:36.932Z,20.57
2018-12-19T22:02:04.334Z,21.17
2018-12-19T22:04:31.932Z,19.80
2018-12-19T22:06:59.260Z,19.63
2018-12-19T22:09:26.638Z,23.50
2018-12-19T22:11:54.044Z,18.93
2018-12-19T22:14:21.369Z,20.37
2018-12-19T22:16:54.493Z,20.90
2018-12-19T22:19:21.795Z,19.60
2018-12-19T22:21:49.136Z,21.30
2018-12-19T22:24:16.478Z,20.90
2018-12-19T22:26:43.966Z,21.63
2018-12-19T22:29:12.336Z,19.23
2018-12-19T22:31:39.652Z,19.63
2018-12-19T22:34:07.099Z,18.80
2018-12-19T22:36:34.290Z,20.00
2018-12-19T22:39:01.546Z,20.63
2018-12-19T22:41:31.133Z,18.43
2018-12-19T22:43:58.447Z,18.70
2018-12-19T22:46:25.912Z,19.37
2018-12-19T22:48:53.147Z,18.60
2018-12-19T22:51:20.476Z,19.20
2018-12-19T22:53:47.849Z,20.80
2018-12-19T22:56:15.173Z,21.80
2018-12-19T22:58:42.559Z,18.87
2018-12-19T23:01:16.459Z,19.30
2018-12-19T23:04:06.273Z,21.20
2018-12-19T23:06:35.208Z,18.63
2018-12-19T23:09:04.644Z,18.43
2018-12-19T23:11:34.112Z,19.03
2018-12-19T23:14:03.143Z,17.70
2018-12-19T23:16:38.781Z,21.23
2018-12-19T23:19:12.062Z,21.67
2018-12-19T23:21:45.777Z,19.17
2018-12-19T23:24:19.500Z,18.80
2018-12-19T23:26:48.775Z,21.03
2018-12-19T23:29:18.059Z,19.87
2018-12-19T23:31:46.954Z,19.43
2018-12-19T23:34:14.326Z,20.87
2018-12-19T23:36:41.765Z,20.70
2018-12-19T23:39:09.214Z,19.60
2018-12-19T23:41:36.660Z,18.53
2018-12-19T23:44:03.908Z,20.33
2018-12-19T23:46:33.471Z,20.17
2018-12-19T23:49:00.853Z,20.47
2018-12-19T23:51:28.236Z,18.30
2018-12-19T23:53:55.643Z,20.67
2018-12-19T23:56:22.897Z,23.40
2018-12-19T23:58:51.172Z,19.97
